LVJAM SUDU-SURV
Flight info
| Callsign | LVJAM |
|---|---|
| Flight time | N/A |
| Altitude | 8000 |
| Route | DCT DUR |
| Aircraft | BE58/L-SDE3L/L |
Departure
| Time | N/A |
|---|---|
| Airport | Santa Bernardina International Airport (SUDU) |
Arrival
| Time | 2026-05-06 03:48 |
|---|---|
| Airport | Pres. Gral. Óscar D. Gestido Binational Airport (SURV) |
| Time | Latitude | Longitude | Altitude | Speed | Heading |
|---|---|---|---|---|---|
| 2026-05-06 03:48 | -30.96867 | -55.46997 | 715 ft | 0 kts | 221° |
| 2026-05-06 03:50 | -30.96890 | -55.47021 | 715 ft | 28 kts | 221° |
| 2026-05-06 03:50 | -30.97200 | -55.47345 | 716 ft | 88 kts | 221° |
| 2026-05-06 03:50 | -30.97737 | -55.47893 | 824 ft | 111 kts | 218° |
| 2026-05-06 03:51 | -30.98367 | -55.48432 | 1129 ft | 112 kts | 212° |
| 2026-05-06 03:51 | -30.99046 | -55.48957 | 1388 ft | 123 kts | 211° |
| 2026-05-06 03:51 | -30.99775 | -55.49536 | 1681 ft | 130 kts | 211° |
| 2026-05-06 03:51 | -31.00530 | -55.50146 | 1957 ft | 137 kts | 212° |
| 2026-05-06 03:52 | -31.01329 | -55.50791 | 2233 ft | 141 kts | 212° |
| 2026-05-06 03:52 | -31.02153 | -55.51449 | 2499 ft | 144 kts | 212° |
| 2026-05-06 03:52 | -31.02995 | -55.52109 | 2738 ft | 148 kts | 212° |
| 2026-05-06 03:52 | -31.03868 | -55.52772 | 2996 ft | 150 kts | 212° |
| 2026-05-06 03:53 | -31.04753 | -55.53432 | 3248 ft | 152 kts | 212° |
| 2026-05-06 03:53 | -31.05638 | -55.54080 | 3496 ft | 153 kts | 212° |
| 2026-05-06 03:53 | -31.06544 | -55.54732 | 3746 ft | 153 kts | 212° |
| 2026-05-06 03:53 | -31.07453 | -55.55373 | 3996 ft | 153 kts | 212° |
| 2026-05-06 03:54 | -31.08361 | -55.56003 | 4242 ft | 151 kts | 212° |
| 2026-05-06 03:54 | -31.09272 | -55.56597 | 4485 ft | 149 kts | 207° |
| 2026-05-06 03:54 | -31.10221 | -55.57058 | 4733 ft | 147 kts | 203° |
| 2026-05-06 03:54 | -31.11169 | -55.57483 | 4978 ft | 145 kts | 203° |
| 2026-05-06 03:55 | -31.12107 | -55.57894 | 5221 ft | 143 kts | 203° |
| 2026-05-06 03:55 | -31.13036 | -55.58298 | 5463 ft | 141 kts | 203° |
| 2026-05-06 03:55 | -31.13945 | -55.58690 | 5697 ft | 140 kts | 203° |
| 2026-05-06 03:55 | -31.14859 | -55.59081 | 5940 ft | 139 kts | 203° |
| 2026-05-06 03:56 | -31.15765 | -55.59465 | 6182 ft | 137 kts | 203° |
| 2026-05-06 03:56 | -31.16659 | -55.59841 | 6422 ft | 135 kts | 203° |
| 2026-05-06 03:56 | -31.17539 | -55.60209 | 6661 ft | 134 kts | 203° |
| 2026-05-06 03:56 | -31.18409 | -55.60569 | 6900 ft | 132 kts | 203° |
| 2026-05-06 03:57 | -31.19286 | -55.60932 | 7052 ft | 137 kts | 203° |
| 2026-05-06 03:57 | -31.20171 | -55.61298 | 7295 ft | 133 kts | 202° |
| 2026-05-06 03:57 | -31.21037 | -55.61652 | 7521 ft | 130 kts | 203° |
| 2026-05-06 03:57 | -31.21879 | -55.61994 | 7744 ft | 126 kts | 202° |
| 2026-05-06 03:58 | -31.22706 | -55.62322 | 7936 ft | 126 kts | 204° |
| 2026-05-06 03:58 | -31.23566 | -55.62626 | 8046 ft | 134 kts | 203° |
| 2026-05-06 03:58 | -31.24488 | -55.62954 | 8077 ft | 147 kts | 203° |
| 2026-05-06 03:58 | -31.25525 | -55.63329 | 8072 ft | 160 kts | 203° |
| 2026-05-06 03:59 | -31.26626 | -55.63730 | 8059 ft | 171 kts | 203° |
| 2026-05-06 03:59 | -31.27782 | -55.64152 | 8050 ft | 177 kts | 203° |
| 2026-05-06 03:59 | -31.28960 | -55.64579 | 8042 ft | 182 kts | 201° |
| 2026-05-06 03:59 | -31.30181 | -55.65053 | 8036 ft | 186 kts | 203° |
| 2026-05-06 04:00 | -31.31413 | -55.65554 | 8035 ft | 189 kts | 203° |
| 2026-05-06 04:00 | -31.32662 | -55.66065 | 8035 ft | 191 kts | 203° |
| 2026-05-06 04:00 | -31.33927 | -55.66580 | 8034 ft | 193 kts | 203° |
| 2026-05-06 04:00 | -31.35198 | -55.67096 | 8032 ft | 194 kts | 203° |
| 2026-05-06 04:01 | -31.36474 | -55.67613 | 8031 ft | 194 kts | 203° |
| 2026-05-06 04:01 | -31.37757 | -55.68132 | 8030 ft | 195 kts | 203° |
| 2026-05-06 04:01 | -31.39038 | -55.68651 | 8030 ft | 195 kts | 203° |
| 2026-05-06 04:01 | -31.40324 | -55.69172 | 8029 ft | 195 kts | 203° |
| 2026-05-06 04:02 | -31.41612 | -55.69693 | 8031 ft | 195 kts | 203° |
| 2026-05-06 04:02 | -31.42897 | -55.70211 | 8030 ft | 195 kts | 203° |
| 2026-05-06 04:02 | -31.44185 | -55.70729 | 8031 ft | 195 kts | 203° |
| 2026-05-06 04:02 | -31.45473 | -55.71244 | 8029 ft | 195 kts | 203° |
| 2026-05-06 04:03 | -31.46757 | -55.71753 | 8032 ft | 195 kts | 204° |
| 2026-05-06 04:03 | -31.48028 | -55.72247 | 8029 ft | 194 kts | 203° |
| 2026-05-06 04:03 | -31.49314 | -55.72741 | 8029 ft | 194 kts | 203° |
| 2026-05-06 04:03 | -31.50591 | -55.73232 | 8029 ft | 193 kts | 203° |
| 2026-05-06 04:04 | -31.51865 | -55.73721 | 8029 ft | 193 kts | 203° |
| 2026-05-06 04:04 | -31.53141 | -55.74211 | 8029 ft | 192 kts | 203° |
| 2026-05-06 04:04 | -31.54412 | -55.74699 | 8029 ft | 192 kts | 203° |
| 2026-05-06 04:04 | -31.55685 | -55.75188 | 8030 ft | 192 kts | 203° |
| 2026-05-06 04:05 | -31.56953 | -55.75674 | 8029 ft | 192 kts | 203° |
| 2026-05-06 04:05 | -31.58220 | -55.76159 | 8029 ft | 192 kts | 203° |
| 2026-05-06 04:05 | -31.59491 | -55.76645 | 8029 ft | 191 kts | 203° |
| 2026-05-06 04:05 | -31.60758 | -55.77129 | 8030 ft | 191 kts | 203° |
| 2026-05-06 04:06 | -31.62022 | -55.77613 | 8029 ft | 191 kts | 203° |
| 2026-05-06 04:06 | -31.63275 | -55.78092 | 8030 ft | 191 kts | 203° |
| 2026-05-06 04:06 | -31.64539 | -55.78576 | 8030 ft | 191 kts | 204° |
| 2026-05-06 04:06 | -31.65804 | -55.79059 | 8030 ft | 191 kts | 204° |
| 2026-05-06 04:07 | -31.67063 | -55.79540 | 8030 ft | 190 kts | 204° |
| 2026-05-06 04:07 | -31.68327 | -55.80022 | 8028 ft | 190 kts | 204° |
| 2026-05-06 04:07 | -31.69587 | -55.80504 | 8029 ft | 190 kts | 204° |
| 2026-05-06 04:07 | -31.70832 | -55.80980 | 8029 ft | 190 kts | 204° |
| 2026-05-06 04:08 | -31.72090 | -55.81462 | 8030 ft | 190 kts | 204° |
| 2026-05-06 04:08 | -31.73347 | -55.81943 | 8030 ft | 190 kts | 204° |
| 2026-05-06 04:08 | -31.74608 | -55.82427 | 8030 ft | 190 kts | 204° |
| 2026-05-06 04:08 | -31.75865 | -55.82909 | 8029 ft | 190 kts | 204° |
| 2026-05-06 04:09 | -31.77127 | -55.83392 | 8028 ft | 190 kts | 204° |
| 2026-05-06 04:09 | -31.78382 | -55.83874 | 8029 ft | 190 kts | 204° |
| 2026-05-06 04:09 | -31.79640 | -55.84357 | 8029 ft | 190 kts | 204° |
| 2026-05-06 04:09 | -31.80888 | -55.84836 | 8030 ft | 190 kts | 204° |
| 2026-05-06 04:10 | -31.82161 | -55.85325 | 8030 ft | 190 kts | 204° |
| 2026-05-06 04:10 | -31.83404 | -55.85804 | 8030 ft | 190 kts | 204° |
| 2026-05-06 04:10 | -31.84675 | -55.86293 | 8030 ft | 190 kts | 204° |
| 2026-05-06 04:10 | -31.85917 | -55.86772 | 8030 ft | 190 kts | 204° |
| 2026-05-06 04:11 | -31.87175 | -55.87258 | 8030 ft | 190 kts | 204° |
| 2026-05-06 04:11 | -31.88433 | -55.87744 | 8030 ft | 190 kts | 204° |
| 2026-05-06 04:11 | -31.89692 | -55.88231 | 8030 ft | 190 kts | 204° |
| 2026-05-06 04:11 | -31.90951 | -55.88718 | 8030 ft | 190 kts | 204° |
| 2026-05-06 04:12 | -31.92210 | -55.89206 | 8030 ft | 190 kts | 204° |
| 2026-05-06 04:12 | -31.93466 | -55.89692 | 8030 ft | 190 kts | 204° |
| 2026-05-06 04:12 | -31.94725 | -55.90181 | 8029 ft | 190 kts | 204° |
| 2026-05-06 04:12 | -31.95980 | -55.90668 | 8030 ft | 190 kts | 204° |
| 2026-05-06 04:13 | -31.97239 | -55.91157 | 8030 ft | 190 kts | 204° |
| 2026-05-06 04:13 | -31.98490 | -55.91643 | 8030 ft | 190 kts | 204° |
| 2026-05-06 04:13 | -31.99753 | -55.92135 | 8029 ft | 190 kts | 204° |
| 2026-05-06 04:13 | -32.01009 | -55.92624 | 8030 ft | 190 kts | 204° |
| 2026-05-06 04:14 | -32.02269 | -55.93116 | 8030 ft | 190 kts | 204° |
| 2026-05-06 04:14 | -32.03103 | -55.93441 | 8030 ft | 190 kts | 204° |
| 2026-05-06 04:14 | -32.04772 | -55.94092 | 8030 ft | 190 kts | 204° |
| 2026-05-06 04:14 | -32.06034 | -55.94586 | 8030 ft | 190 kts | 204° |
| 2026-05-06 04:15 | -32.07289 | -55.95076 | 8030 ft | 190 kts | 204° |
| 2026-05-06 04:15 | -32.08546 | -55.95568 | 8030 ft | 190 kts | 204° |
| 2026-05-06 04:15 | -32.09805 | -55.96061 | 8030 ft | 190 kts | 204° |
| 2026-05-06 04:15 | -32.10636 | -55.96387 | 8030 ft | 190 kts | 204° |
| 2026-05-06 04:16 | -32.11895 | -55.96881 | 8030 ft | 190 kts | 204° |
| 2026-05-06 04:16 | -32.13154 | -55.97374 | 8030 ft | 190 kts | 204° |
| 2026-05-06 04:16 | -32.14410 | -55.97867 | 8030 ft | 190 kts | 204° |
| 2026-05-06 04:16 | -32.15672 | -55.98364 | 8030 ft | 190 kts | 204° |
| 2026-05-06 04:17 | -32.16931 | -55.98858 | 8030 ft | 190 kts | 204° |
| 2026-05-06 04:17 | -32.18185 | -55.99352 | 8029 ft | 190 kts | 204° |
| 2026-05-06 04:17 | -32.19433 | -55.99844 | 8030 ft | 191 kts | 204° |
| 2026-05-06 04:17 | -32.20694 | -56.00342 | 8030 ft | 191 kts | 204° |
| 2026-05-06 04:18 | -32.21953 | -56.00839 | 8030 ft | 191 kts | 204° |
| 2026-05-06 04:18 | -32.23202 | -56.01366 | 8039 ft | 191 kts | 198° |
| 2026-05-06 04:18 | -32.24425 | -56.01985 | 8050 ft | 191 kts | 206° |
| 2026-05-06 04:18 | -32.25679 | -56.02510 | 8059 ft | 191 kts | 204° |
| 2026-05-06 04:19 | -32.26940 | -56.03014 | 8060 ft | 191 kts | 204° |
| 2026-05-06 04:19 | -32.28199 | -56.03514 | 8058 ft | 191 kts | 204° |
| 2026-05-06 04:19 | -32.29456 | -56.04013 | 8058 ft | 191 kts | 204° |
| 2026-05-06 04:19 | -32.30699 | -56.04506 | 8059 ft | 191 kts | 204° |
| 2026-05-06 04:20 | -32.31959 | -56.05007 | 8059 ft | 191 kts | 204° |
| 2026-05-06 04:20 | -32.33216 | -56.05507 | 8058 ft | 191 kts | 204° |
| 2026-05-06 04:20 | -32.34478 | -56.06009 | 8060 ft | 191 kts | 204° |
| 2026-05-06 04:20 | -32.35734 | -56.06508 | 8058 ft | 190 kts | 204° |
| 2026-05-06 04:21 | -32.36986 | -56.07006 | 8058 ft | 190 kts | 204° |
| 2026-05-06 04:21 | -32.38244 | -56.07506 | 8061 ft | 190 kts | 204° |
| 2026-05-06 04:21 | -32.39501 | -56.08006 | 8058 ft | 190 kts | 204° |
| 2026-05-06 04:21 | -32.40757 | -56.08505 | 8059 ft | 190 kts | 204° |
| 2026-05-06 04:22 | -32.41996 | -56.08997 | 8060 ft | 190 kts | 204° |
| 2026-05-06 04:22 | -32.43251 | -56.09496 | 8060 ft | 190 kts | 204° |
| 2026-05-06 04:22 | -32.44506 | -56.09995 | 8058 ft | 190 kts | 204° |
| 2026-05-06 04:23 | -32.47012 | -56.10992 | 8060 ft | 190 kts | 204° |
| 2026-05-06 04:23 | -32.48269 | -56.11492 | 8059 ft | 190 kts | 204° |
| 2026-05-06 04:23 | -32.49521 | -56.11992 | 8059 ft | 190 kts | 204° |
| 2026-05-06 04:23 | -32.50771 | -56.12491 | 8057 ft | 190 kts | 204° |
| 2026-05-06 04:24 | -32.52029 | -56.12993 | 8058 ft | 190 kts | 204° |
| 2026-05-06 04:24 | -32.53283 | -56.13494 | 8060 ft | 190 kts | 204° |